sensor_id;sensor_type;location;lat;lon;timestamp;P1;durP1;ratioP1;P2;durP2;ratioP2
51286;SDS011;37364;46.974;18.916;2023-09-19T00:01:20;5.78;;;4.28;;
51286;SDS011;37364;46.974;18.916;2023-09-19T00:03:51;7.22;;;4.05;;
51286;SDS011;37364;46.974;18.916;2023-09-19T00:06:21;13.65;;;4.30;;
51286;SDS011;37364;46.974;18.916;2023-09-19T00:08:53;6.03;;;4.63;;
51286;SDS011;37364;46.974;18.916;2023-09-19T00:11:28;6.85;;;4.28;;
51286;SDS011;37364;46.974;18.916;2023-09-19T00:13:58;6.43;;;3.30;;
51286;SDS011;37364;46.974;18.916;2023-09-19T00:16:29;5.20;;;3.75;;
51286;SDS011;37364;46.974;18.916;2023-09-19T00:18:59;7.07;;;4.60;;
51286;SDS011;37364;46.974;18.916;2023-09-19T00:21:34;11.05;;;4.05;;
51286;SDS011;37364;46.974;18.916;2023-09-19T00:24:04;9.93;;;3.90;;
51286;SDS011;37364;46.974;18.916;2023-09-19T00:26:38;5.38;;;3.85;;
51286;SDS011;37364;46.974;18.916;2023-09-19T00:29:10;6.43;;;3.72;;
51286;SDS011;37364;46.974;18.916;2023-09-19T00:31:44;6.65;;;3.95;;
51286;SDS011;37364;46.974;18.916;2023-09-19T00:34:15;7.88;;;4.55;;
51286;SDS011;37364;46.974;18.916;2023-09-19T00:36:47;5.03;;;4.00;;
51286;SDS011;37364;46.974;18.916;2023-09-19T00:39:18;5.80;;;4.05;;
51286;SDS011;37364;46.974;18.916;2023-09-19T00:41:55;6.70;;;3.90;;
51286;SDS011;37364;46.974;18.916;2023-09-19T00:44:31;7.70;;;3.97;;
51286;SDS011;37364;46.974;18.916;2023-09-19T00:47:04;7.60;;;4.43;;
51286;SDS011;37364;46.974;18.916;2023-09-19T00:49:39;8.93;;;4.55;;
51286;SDS011;37364;46.974;18.916;2023-09-19T00:52:10;15.27;;;5.03;;
51286;SDS011;37364;46.974;18.916;2023-09-19T00:54:41;5.72;;;3.95;;
51286;SDS011;37364;46.974;18.916;2023-09-19T00:57:14;8.38;;;4.32;;
51286;SDS011;37364;46.974;18.916;2023-09-19T00:59:46;18.30;;;4.60;;
51286;SDS011;37364;46.974;18.916;2023-09-19T01:02:18;5.38;;;4.18;;
51286;SDS011;37364;46.974;18.916;2023-09-19T01:04:49;9.10;;;3.90;;
51286;SDS011;37364;46.974;18.916;2023-09-19T01:07:20;9.35;;;4.05;;
51286;SDS011;37364;46.974;18.916;2023-09-19T01:09:51;9.45;;;4.13;;
51286;SDS011;37364;46.974;18.916;2023-09-19T01:12:26;9.27;;;4.43;;
51286;SDS011;37364;46.974;18.916;2023-09-19T01:15:04;12.48;;;4.07;;
51286;SDS011;37364;46.974;18.916;2023-09-19T01:17:45;5.05;;;4.40;;
51286;SDS011;37364;46.974;18.916;2023-09-19T01:20:23;5.03;;;4.28;;
51286;SDS011;37364;46.974;18.916;2023-09-19T01:23:02;8.00;;;4.75;;
51286;SDS011;37364;46.974;18.916;2023-09-19T01:31:52;21.55;;;5.00;;
51286;SDS011;37364;46.974;18.916;2023-09-19T01:34:24;5.55;;;3.63;;
51286;SDS011;37364;46.974;18.916;2023-09-19T01:36:54;7.32;;;4.28;;
51286;SDS011;37364;46.974;18.916;2023-09-19T01:39:25;6.45;;;4.65;;
51286;SDS011;37364;46.974;18.916;2023-09-19T01:41:56;6.85;;;4.05;;
51286;SDS011;37364;46.974;18.916;2023-09-19T01:44:34;6.75;;;4.38;;
51286;SDS011;37364;46.974;18.916;2023-09-19T01:47:19;5.83;;;5.23;;
51286;SDS011;37364;46.974;18.916;2023-09-19T01:49:59;10.07;;;5.22;;
51286;SDS011;37364;46.974;18.916;2023-09-19T01:52:51;9.20;;;4.97;;
51286;SDS011;37364;46.974;18.916;2023-09-19T01:55:27;11.38;;;5.18;;
51286;SDS011;37364;46.974;18.916;2023-09-19T01:58:01;6.18;;;4.47;;
51286;SDS011;37364;46.974;18.916;2023-09-19T02:00:37;9.82;;;4.97;;
51286;SDS011;37364;46.974;18.916;2023-09-19T02:03:13;5.93;;;5.10;;
51286;SDS011;37364;46.974;18.916;2023-09-19T02:05:48;13.38;;;4.55;;
51286;SDS011;37364;46.974;18.916;2023-09-19T02:08:22;7.90;;;4.22;;
51286;SDS011;37364;46.974;18.916;2023-09-19T02:10:57;9.05;;;5.65;;
51286;SDS011;37364;46.974;18.916;2023-09-19T02:13:27;14.63;;;6.95;;
51286;SDS011;37364;46.974;18.916;2023-09-19T02:15:58;8.02;;;4.32;;
51286;SDS011;37364;46.974;18.916;2023-09-19T02:18:33;7.53;;;5.10;;
51286;SDS011;37364;46.974;18.916;2023-09-19T02:21:06;6.43;;;3.95;;
51286;SDS011;37364;46.974;18.916;2023-09-19T02:26:09;10.90;;;4.53;;
51286;SDS011;37364;46.974;18.916;2023-09-19T02:28:40;8.77;;;5.32;;
51286;SDS011;37364;46.974;18.916;2023-09-19T02:31:12;8.35;;;5.20;;
51286;SDS011;37364;46.974;18.916;2023-09-19T02:33:46;7.68;;;5.32;;
51286;SDS011;37364;46.974;18.916;2023-09-19T02:36:16;9.60;;;4.28;;
51286;SDS011;37364;46.974;18.916;2023-09-19T02:38:46;6.30;;;5.38;;
51286;SDS011;37364;46.974;18.916;2023-09-19T02:41:17;8.15;;;4.78;;
51286;SDS011;37364;46.974;18.916;2023-09-19T02:43:47;7.13;;;4.97;;
51286;SDS011;37364;46.974;18.916;2023-09-19T02:46:18;6.55;;;4.93;;
51286;SDS011;37364;46.974;18.916;2023-09-19T02:48:51;8.10;;;5.03;;
51286;SDS011;37364;46.974;18.916;2023-09-19T02:51:21;8.38;;;5.35;;
51286;SDS011;37364;46.974;18.916;2023-09-19T02:53:52;8.25;;;5.07;;
51286;SDS011;37364;46.974;18.916;2023-09-19T02:56:22;10.65;;;5.15;;
51286;SDS011;37364;46.974;18.916;2023-09-19T02:58:55;6.75;;;4.80;;
51286;SDS011;37364;46.974;18.916;2023-09-19T03:01:27;9.25;;;4.85;;
51286;SDS011;37364;46.974;18.916;2023-09-19T03:04:01;6.15;;;5.30;;
51286;SDS011;37364;46.974;18.916;2023-09-19T03:06:35;8.18;;;4.75;;
51286;SDS011;37364;46.974;18.916;2023-09-19T03:09:06;7.30;;;4.75;;
51286;SDS011;37364;46.974;18.916;2023-09-19T03:14:09;6.93;;;4.57;;
51286;SDS011;37364;46.974;18.916;2023-09-19T03:16:42;15.02;;;5.60;;
51286;SDS011;37364;46.974;18.916;2023-09-19T03:19:17;12.20;;;5.93;;
51286;SDS011;37364;46.974;18.916;2023-09-19T03:21:48;8.55;;;5.28;;
51286;SDS011;37364;46.974;18.916;2023-09-19T03:24:19;6.15;;;4.57;;
51286;SDS011;37364;46.974;18.916;2023-09-19T03:26:50;6.22;;;4.85;;
51286;SDS011;37364;46.974;18.916;2023-09-19T03:29:21;5.63;;;4.88;;
51286;SDS011;37364;46.974;18.916;2023-09-19T03:31:52;7.82;;;5.35;;
51286;SDS011;37364;46.974;18.916;2023-09-19T03:34:26;6.97;;;5.72;;
51286;SDS011;37364;46.974;18.916;2023-09-19T03:36:56;5.03;;;4.45;;
51286;SDS011;37364;46.974;18.916;2023-09-19T03:39:27;10.15;;;5.45;;
51286;SDS011;37364;46.974;18.916;2023-09-19T03:42:00;7.80;;;5.80;;
51286;SDS011;37364;46.974;18.916;2023-09-19T03:44:31;7.00;;;4.75;;
51286;SDS011;37364;46.974;18.916;2023-09-19T03:47:03;13.43;;;5.80;;
51286;SDS011;37364;46.974;18.916;2023-09-19T03:49:37;9.32;;;5.80;;
51286;SDS011;37364;46.974;18.916;2023-09-19T03:52:07;5.63;;;4.82;;
51286;SDS011;37364;46.974;18.916;2023-09-19T03:54:38;14.68;;;5.20;;
51286;SDS011;37364;46.974;18.916;2023-09-19T03:57:10;5.90;;;4.05;;
51286;SDS011;37364;46.974;18.916;2023-09-19T03:59:43;10.70;;;5.80;;
51286;SDS011;37364;46.974;18.916;2023-09-19T04:02:14;9.65;;;5.40;;
51286;SDS011;37364;46.974;18.916;2023-09-19T04:04:52;8.48;;;5.00;;
51286;SDS011;37364;46.974;18.916;2023-09-19T04:07:22;7.35;;;5.97;;
51286;SDS011;37364;46.974;18.916;2023-09-19T04:09:55;17.92;;;6.28;;
51286;SDS011;37364;46.974;18.916;2023-09-19T04:12:26;14.85;;;5.68;;
51286;SDS011;37364;46.974;18.916;2023-09-19T04:14:57;10.25;;;5.13;;
51286;SDS011;37364;46.974;18.916;2023-09-19T04:17:27;8.55;;;5.47;;
51286;SDS011;37364;46.974;18.916;2023-09-19T04:20:03;12.20;;;6.00;;
51286;SDS011;37364;46.974;18.916;2023-09-19T04:22:35;10.48;;;6.18;;
51286;SDS011;37364;46.974;18.916;2023-09-19T04:25:06;9.00;;;5.97;;
51286;SDS011;37364;46.974;18.916;2023-09-19T04:27:37;8.25;;;6.03;;
51286;SDS011;37364;46.974;18.916;2023-09-19T04:30:08;8.07;;;5.32;;
51286;SDS011;37364;46.974;18.916;2023-09-19T04:32:39;12.40;;;5.65;;
51286;SDS011;37364;46.974;18.916;2023-09-19T04:35:12;11.70;;;5.43;;
51286;SDS011;37364;46.974;18.916;2023-09-19T04:37:43;7.13;;;5.47;;
51286;SDS011;37364;46.974;18.916;2023-09-19T04:40:15;12.75;;;5.40;;
51286;SDS011;37364;46.974;18.916;2023-09-19T04:42:50;10.25;;;5.53;;
51286;SDS011;37364;46.974;18.916;2023-09-19T04:45:26;7.35;;;5.63;;
51286;SDS011;37364;46.974;18.916;2023-09-19T04:47:58;10.38;;;6.05;;
51286;SDS011;37364;46.974;18.916;2023-09-19T04:50:32;10.63;;;5.93;;
51286;SDS011;37364;46.974;18.916;2023-09-19T04:53:08;8.43;;;5.53;;
51286;SDS011;37364;46.974;18.916;2023-09-19T04:55:39;7.88;;;5.53;;
51286;SDS011;37364;46.974;18.916;2023-09-19T04:58:09;8.68;;;6.35;;
51286;SDS011;37364;46.974;18.916;2023-09-19T05:00:39;6.93;;;5.65;;
51286;SDS011;37364;46.974;18.916;2023-09-19T05:03:10;8.80;;;5.47;;
51286;SDS011;37364;46.974;18.916;2023-09-19T05:05:43;8.68;;;5.80;;
51286;SDS011;37364;46.974;18.916;2023-09-19T05:08:13;8.70;;;5.57;;
51286;SDS011;37364;46.974;18.916;2023-09-19T05:10:44;12.80;;;6.35;;
51286;SDS011;37364;46.974;18.916;2023-09-19T05:13:14;11.20;;;5.68;;
51286;SDS011;37364;46.974;18.916;2023-09-19T05:15:44;6.85;;;5.20;;
51286;SDS011;37364;46.974;18.916;2023-09-19T05:18:15;13.20;;;5.45;;
51286;SDS011;37364;46.974;18.916;2023-09-19T05:20:48;12.07;;;6.25;;
51286;SDS011;37364;46.974;18.916;2023-09-19T05:23:19;12.13;;;5.10;;
51286;SDS011;37364;46.974;18.916;2023-09-19T05:25:50;8.80;;;5.55;;
51286;SDS011;37364;46.974;18.916;2023-09-19T05:28:21;15.55;;;5.65;;
51286;SDS011;37364;46.974;18.916;2023-09-19T05:30:51;3.55;;;3.22;;
51286;SDS011;37364;46.974;18.916;2023-09-19T05:33:22;5.25;;;2.08;;
51286;SDS011;37364;46.974;18.916;2023-09-19T05:35:56;3.90;;;1.52;;
51286;SDS011;37364;46.974;18.916;2023-09-19T05:38:26;1.55;;;1.40;;
51286;SDS011;37364;46.974;18.916;2023-09-19T05:40:56;1.23;;;1.10;;
51286;SDS011;37364;46.974;18.916;2023-09-19T05:43:27;0.88;;;0.88;;
51286;SDS011;37364;46.974;18.916;2023-09-19T05:45:59;3.28;;;0.82;;
51286;SDS011;37364;46.974;18.916;2023-09-19T05:48:29;1.95;;;0.93;;
51286;SDS011;37364;46.974;18.916;2023-09-19T05:51:02;0.50;;;0.50;;
51286;SDS011;37364;46.974;18.916;2023-09-19T05:53:32;0.52;;;0.52;;
51286;SDS011;37364;46.974;18.916;2023-09-19T05:56:03;2.30;;;0.98;;
51286;SDS011;37364;46.974;18.916;2023-09-19T05:58:33;0.77;;;0.77;;
51286;SDS011;37364;46.974;18.916;2023-09-19T06:01:04;0.85;;;0.80;;
51286;SDS011;37364;46.974;18.916;2023-09-19T06:03:34;1.00;;;0.60;;
51286;SDS011;37364;46.974;18.916;2023-09-19T06:06:08;0.75;;;0.75;;
51286;SDS011;37364;46.974;18.916;2023-09-19T06:08:38;1.63;;;0.57;;
51286;SDS011;37364;46.974;18.916;2023-09-19T06:11:10;6.72;;;1.02;;
51286;SDS011;37364;46.974;18.916;2023-09-19T06:13:41;1.63;;;1.08;;
51286;SDS011;37364;46.974;18.916;2023-09-19T06:16:14;0.77;;;0.77;;
51286;SDS011;37364;46.974;18.916;2023-09-19T06:18:46;2.73;;;0.63;;
51286;SDS011;37364;46.974;18.916;2023-09-19T06:21:22;2.72;;;0.57;;
51286;SDS011;37364;46.974;18.916;2023-09-19T06:23:53;1.77;;;1.35;;
51286;SDS011;37364;46.974;18.916;2023-09-19T06:26:27;6.18;;;0.88;;
51286;SDS011;37364;46.974;18.916;2023-09-19T06:28:58;1.55;;;0.57;;
51286;SDS011;37364;46.974;18.916;2023-09-19T06:31:34;2.95;;;0.63;;
51286;SDS011;37364;46.974;18.916;2023-09-19T06:34:04;1.88;;;0.90;;
51286;SDS011;37364;46.974;18.916;2023-09-19T06:36:37;0.50;;;0.50;;
51286;SDS011;37364;46.974;18.916;2023-09-19T06:39:07;0.82;;;0.73;;
51286;SDS011;37364;46.974;18.916;2023-09-19T06:41:40;0.60;;;0.60;;
51286;SDS011;37364;46.974;18.916;2023-09-19T06:44:13;0.70;;;0.70;;
51286;SDS011;37364;46.974;18.916;2023-09-19T06:46:43;2.20;;;1.10;;
51286;SDS011;37364;46.974;18.916;2023-09-19T06:49:16;1.95;;;0.80;;
51286;SDS011;37364;46.974;18.916;2023-09-19T06:51:49;1.77;;;1.10;;
51286;SDS011;37364;46.974;18.916;2023-09-19T06:54:20;4.05;;;1.02;;
51286;SDS011;37364;46.974;18.916;2023-09-19T06:56:50;0.60;;;0.60;;
51286;SDS011;37364;46.974;18.916;2023-09-19T06:59:21;1.38;;;0.98;;
51286;SDS011;37364;46.974;18.916;2023-09-19T07:01:52;1.33;;;0.95;;
51286;SDS011;37364;46.974;18.916;2023-09-19T07:04:22;1.27;;;0.70;;
51286;SDS011;37364;46.974;18.916;2023-09-19T07:06:55;1.05;;;0.90;;
51286;SDS011;37364;46.974;18.916;2023-09-19T07:09:25;0.75;;;0.43;;
51286;SDS011;37364;46.974;18.916;2023-09-19T07:11:58;0.82;;;0.80;;
51286;SDS011;37364;46.974;18.916;2023-09-19T07:14:33;2.60;;;0.85;;
51286;SDS011;37364;46.974;18.916;2023-09-19T07:17:03;0.77;;;0.68;;
51286;SDS011;37364;46.974;18.916;2023-09-19T07:19:33;1.05;;;0.85;;
51286;SDS011;37364;46.974;18.916;2023-09-19T07:22:06;1.02;;;0.93;;
51286;SDS011;37364;46.974;18.916;2023-09-19T07:24:36;0.50;;;0.50;;
51286;SDS011;37364;46.974;18.916;2023-09-19T07:27:06;0.50;;;0.50;;
51286;SDS011;37364;46.974;18.916;2023-09-19T07:29:37;1.10;;;0.60;;
51286;SDS011;37364;46.974;18.916;2023-09-19T07:32:10;0.88;;;0.70;;
51286;SDS011;37364;46.974;18.916;2023-09-19T07:34:41;0.73;;;0.73;;
51286;SDS011;37364;46.974;18.916;2023-09-19T07:37:14;3.75;;;0.93;;
51286;SDS011;37364;46.974;18.916;2023-09-19T07:39:44;1.15;;;1.05;;
51286;SDS011;37364;46.974;18.916;2023-09-19T07:42:15;1.10;;;0.85;;
51286;SDS011;37364;46.974;18.916;2023-09-19T07:44:45;0.52;;;0.52;;
51286;SDS011;37364;46.974;18.916;2023-09-19T07:47:17;0.73;;;0.60;;
51286;SDS011;37364;46.974;18.916;2023-09-19T07:49:47;2.35;;;1.17;;
51286;SDS011;37364;46.974;18.916;2023-09-19T07:52:20;1.48;;;0.75;;
51286;SDS011;37364;46.974;18.916;2023-09-19T07:54:51;1.58;;;0.70;;
51286;SDS011;37364;46.974;18.916;2023-09-19T07:57:21;0.80;;;0.80;;
51286;SDS011;37364;46.974;18.916;2023-09-19T07:59:51;0.68;;;0.68;;
51286;SDS011;37364;46.974;18.916;2023-09-19T08:02:22;0.77;;;0.77;;
51286;SDS011;37364;46.974;18.916;2023-09-19T08:04:52;0.82;;;0.63;;
51286;SDS011;37364;46.974;18.916;2023-09-19T08:07:27;1.00;;;0.80;;
51286;SDS011;37364;46.974;18.916;2023-09-19T08:09:58;0.63;;;0.63;;
51286;SDS011;37364;46.974;18.916;2023-09-19T08:12:28;3.53;;;0.80;;
51286;SDS011;37364;46.974;18.916;2023-09-19T08:15:02;1.45;;;0.95;;
51286;SDS011;37364;46.974;18.916;2023-09-19T08:17:33;2.05;;;1.10;;
51286;SDS011;37364;46.974;18.916;2023-09-19T08:20:05;1.00;;;0.60;;
51286;SDS011;37364;46.974;18.916;2023-09-19T08:22:49;0.90;;;0.90;;
51286;SDS011;37364;46.974;18.916;2023-09-19T08:25:23;0.80;;;0.80;;
51286;SDS011;37364;46.974;18.916;2023-09-19T08:27:55;2.30;;;1.08;;
51286;SDS011;37364;46.974;18.916;2023-09-19T08:30:26;1.02;;;1.02;;
51286;SDS011;37364;46.974;18.916;2023-09-19T08:32:57;1.38;;;0.90;;
51286;SDS011;37364;46.974;18.916;2023-09-19T08:35:28;1.85;;;1.10;;
51286;SDS011;37364;46.974;18.916;2023-09-19T08:38:01;2.25;;;1.08;;
51286;SDS011;37364;46.974;18.916;2023-09-19T08:40:33;2.78;;;1.00;;
51286;SDS011;37364;46.974;18.916;2023-09-19T08:43:08;1.48;;;1.33;;
51286;SDS011;37364;46.974;18.916;2023-09-19T08:45:39;1.58;;;1.02;;
51286;SDS011;37364;46.974;18.916;2023-09-19T08:48:15;3.22;;;1.13;;
51286;SDS011;37364;46.974;18.916;2023-09-19T08:50:51;2.13;;;1.30;;
51286;SDS011;37364;46.974;18.916;2023-09-19T08:53:34;1.73;;;0.90;;
51286;SDS011;37364;46.974;18.916;2023-09-19T08:56:13;2.15;;;1.05;;
51286;SDS011;37364;46.974;18.916;2023-09-19T08:58:48;1.23;;;1.10;;
51286;SDS011;37364;46.974;18.916;2023-09-19T09:01:21;1.10;;;1.10;;
51286;SDS011;37364;46.974;18.916;2023-09-19T09:03:52;1.17;;;1.08;;
51286;SDS011;37364;46.974;18.916;2023-09-19T09:06:24;1.15;;;0.98;;
51286;SDS011;37364;46.974;18.916;2023-09-19T09:08:59;1.30;;;1.00;;
51286;SDS011;37364;46.974;18.916;2023-09-19T09:11:30;2.25;;;1.23;;
51286;SDS011;37364;46.974;18.916;2023-09-19T09:14:04;1.02;;;0.98;;
51286;SDS011;37364;46.974;18.916;2023-09-19T09:16:36;1.60;;;1.03;;
51286;SDS011;37364;46.974;18.916;2023-09-19T09:19:08;1.00;;;1.00;;
51286;SDS011;37364;46.974;18.916;2023-09-19T09:21:39;2.95;;;1.02;;
51286;SDS011;37364;46.974;18.916;2023-09-19T09:27:05;1.77;;;1.10;;
51286;SDS011;37364;46.974;18.916;2023-09-19T09:29:41;1.75;;;1.08;;
51286;SDS011;37364;46.974;18.916;2023-09-19T09:32:17;1.13;;;1.05;;
51286;SDS011;37364;46.974;18.916;2023-09-19T09:34:51;1.05;;;0.98;;
51286;SDS011;37364;46.974;18.916;2023-09-19T09:37:27;0.90;;;0.85;;
51286;SDS011;37364;46.974;18.916;2023-09-19T09:40:01;0.93;;;0.70;;
51286;SDS011;37364;46.974;18.916;2023-09-19T09:42:46;2.58;;;0.80;;
51286;SDS011;37364;46.974;18.916;2023-09-19T09:45:25;3.15;;;0.95;;
51286;SDS011;37364;46.974;18.916;2023-09-19T09:48:04;1.75;;;1.02;;
51286;SDS011;37364;46.974;18.916;2023-09-19T09:50:46;0.90;;;0.75;;
51286;SDS011;37364;46.974;18.916;2023-09-19T09:53:23;0.68;;;0.60;;
51286;SDS011;37364;46.974;18.916;2023-09-19T09:56:02;0.68;;;0.60;;
51286;SDS011;37364;46.974;18.916;2023-09-19T09:58:37;9.32;;;1.20;;
51286;SDS011;37364;46.974;18.916;2023-09-19T10:01:22;1.75;;;1.27;;
51286;SDS011;37364;46.974;18.916;2023-09-19T10:03:56;0.95;;;0.77;;
51286;SDS011;37364;46.974;18.916;2023-09-19T10:06:39;1.15;;;0.63;;
51286;SDS011;37364;46.974;18.916;2023-09-19T10:09:14;0.50;;;0.50;;
51286;SDS011;37364;46.974;18.916;2023-09-19T10:14:37;2.78;;;0.80;;
51286;SDS011;37364;46.974;18.916;2023-09-19T10:17:10;1.85;;;1.25;;
51286;SDS011;37364;46.974;18.916;2023-09-19T10:19:45;4.97;;;0.80;;
51286;SDS011;37364;46.974;18.916;2023-09-19T10:22:24;1.75;;;0.88;;
51286;SDS011;37364;46.974;18.916;2023-09-19T10:24:59;2.50;;;1.02;;
51286;SDS011;37364;46.974;18.916;2023-09-19T10:27:37;1.13;;;0.70;;
51286;SDS011;37364;46.974;18.916;2023-09-19T10:30:10;1.30;;;0.70;;
51286;SDS011;37364;46.974;18.916;2023-09-19T10:32:42;2.20;;;1.00;;
51286;SDS011;37364;46.974;18.916;2023-09-19T10:35:14;1.10;;;0.80;;
51286;SDS011;37364;46.974;18.916;2023-09-19T10:37:46;1.35;;;0.75;;
51286;SDS011;37364;46.974;18.916;2023-09-19T10:40:20;0.95;;;0.60;;
51286;SDS011;37364;46.974;18.916;2023-09-19T10:43:00;0.80;;;0.73;;
51286;SDS011;37364;46.974;18.916;2023-09-19T10:45:32;1.58;;;0.68;;
51286;SDS011;37364;46.974;18.916;2023-09-19T10:48:05;1.17;;;1.00;;
51286;SDS011;37364;46.974;18.916;2023-09-19T10:50:43;0.80;;;0.80;;
51286;SDS011;37364;46.974;18.916;2023-09-19T10:53:17;2.35;;;0.80;;
51286;SDS011;37364;46.974;18.916;2023-09-19T10:55:50;2.35;;;1.17;;
51286;SDS011;37364;46.974;18.916;2023-09-19T10:58:31;0.52;;;0.47;;
51286;SDS011;37364;46.974;18.916;2023-09-19T11:01:07;0.90;;;0.90;;
51286;SDS011;37364;46.974;18.916;2023-09-19T11:03:39;0.82;;;0.80;;
51286;SDS011;37364;46.974;18.916;2023-09-19T11:06:11;0.80;;;0.80;;
51286;SDS011;37364;46.974;18.916;2023-09-19T11:08:56;1.85;;;1.10;;
51286;SDS011;37364;46.974;18.916;2023-09-19T11:11:43;0.70;;;0.70;;
51286;SDS011;37364;46.974;18.916;2023-09-19T11:14:32;1.83;;;0.73;;
51286;SDS011;37364;46.974;18.916;2023-09-19T11:23:19;3.83;;;0.70;;
51286;SDS011;37364;46.974;18.916;2023-09-19T11:25:57;2.70;;;0.95;;
51286;SDS011;37364;46.974;18.916;2023-09-19T11:28:35;4.13;;;1.00;;
51286;SDS011;37364;46.974;18.916;2023-09-19T11:34:45;1.00;;;0.80;;
51286;SDS011;37364;46.974;18.916;2023-09-19T11:40:38;2.47;;;1.17;;
51286;SDS011;37364;46.974;18.916;2023-09-19T11:46:10;5.18;;;0.90;;
51286;SDS011;37364;46.974;18.916;2023-09-19T11:48:43;4.15;;;1.30;;
51286;SDS011;37364;46.974;18.916;2023-09-19T11:51:18;1.95;;;0.90;;
51286;SDS011;37364;46.974;18.916;2023-09-19T11:53:50;0.80;;;0.80;;
51286;SDS011;37364;46.974;18.916;2023-09-19T11:56:21;0.73;;;0.73;;
51286;SDS011;37364;46.974;18.916;2023-09-19T11:58:55;0.88;;;0.82;;
51286;SDS011;37364;46.974;18.916;2023-09-19T12:01:29;0.90;;;0.43;;
51286;SDS011;37364;46.974;18.916;2023-09-19T12:04:02;1.10;;;0.82;;
51286;SDS011;37364;46.974;18.916;2023-09-19T12:06:36;0.73;;;0.73;;
51286;SDS011;37364;46.974;18.916;2023-09-19T12:09:12;0.95;;;0.60;;
51286;SDS011;37364;46.974;18.916;2023-09-19T12:11:43;0.80;;;0.70;;
51286;SDS011;37364;46.974;18.916;2023-09-19T12:14:21;8.63;;;1.30;;
51286;SDS011;37364;46.974;18.916;2023-09-19T12:16:56;1.45;;;0.70;;
51286;SDS011;37364;46.974;18.916;2023-09-19T12:19:28;0.70;;;0.70;;
51286;SDS011;37364;46.974;18.916;2023-09-19T12:22:01;1.65;;;0.88;;
51286;SDS011;37364;46.974;18.916;2023-09-19T12:24:38;2.65;;;0.60;;
51286;SDS011;37364;46.974;18.916;2023-09-19T12:27:11;1.40;;;0.60;;
51286;SDS011;37364;46.974;18.916;2023-09-19T12:29:42;0.50;;;0.50;;
51286;SDS011;37364;46.974;18.916;2023-09-19T12:32:13;1.63;;;0.82;;
51286;SDS011;37364;46.974;18.916;2023-09-19T12:34:50;0.55;;;0.55;;
51286;SDS011;37364;46.974;18.916;2023-09-19T12:37:26;1.00;;;0.60;;
51286;SDS011;37364;46.974;18.916;2023-09-19T12:40:04;1.88;;;0.60;;
51286;SDS011;37364;46.974;18.916;2023-09-19T12:42:44;1.88;;;0.93;;
51286;SDS011;37364;46.974;18.916;2023-09-19T12:45:15;2.17;;;0.85;;
51286;SDS011;37364;46.974;18.916;2023-09-19T12:51:03;1.10;;;0.55;;
51286;SDS011;37364;46.974;18.916;2023-09-19T12:53:39;0.57;;;0.52;;
51286;SDS011;37364;46.974;18.916;2023-09-19T12:56:14;1.10;;;0.55;;
51286;SDS011;37364;46.974;18.916;2023-09-19T12:58:48;0.70;;;0.65;;
51286;SDS011;37364;46.974;18.916;2023-09-19T13:01:21;0.73;;;0.68;;
51286;SDS011;37364;46.974;18.916;2023-09-19T13:06:45;1.55;;;0.60;;
51286;SDS011;37364;46.974;18.916;2023-09-19T13:09:19;0.63;;;0.63;;
51286;SDS011;37364;46.974;18.916;2023-09-19T13:11:53;0.52;;;0.52;;
51286;SDS011;37364;46.974;18.916;2023-09-19T13:14:26;2.47;;;0.95;;
51286;SDS011;37364;46.974;18.916;2023-09-19T13:16:59;0.63;;;0.60;;
51286;SDS011;37364;46.974;18.916;2023-09-19T13:19:35;1.75;;;0.30;;
51286;SDS011;37364;46.974;18.916;2023-09-19T13:25:13;1.00;;;0.93;;
51286;SDS011;37364;46.974;18.916;2023-09-19T13:27:46;0.85;;;0.70;;
51286;SDS011;37364;46.974;18.916;2023-09-19T13:30:19;3.97;;;0.90;;
51286;SDS011;37364;46.974;18.916;2023-09-19T13:32:52;2.22;;;0.88;;
51286;SDS011;37364;46.974;18.916;2023-09-19T13:35:34;0.43;;;0.43;;
51286;SDS011;37364;46.974;18.916;2023-09-19T13:38:04;0.77;;;0.75;;
51286;SDS011;37364;46.974;18.916;2023-09-19T13:40:39;0.90;;;0.65;;
51286;SDS011;37364;46.974;18.916;2023-09-19T13:43:10;0.43;;;0.43;;
51286;SDS011;37364;46.974;18.916;2023-09-19T13:45:40;0.88;;;0.70;;
51286;SDS011;37364;46.974;18.916;2023-09-19T13:48:11;0.73;;;0.60;;
51286;SDS011;37364;46.974;18.916;2023-09-19T13:50:41;0.90;;;0.60;;
51286;SDS011;37364;46.974;18.916;2023-09-19T13:53:12;0.73;;;0.73;;
51286;SDS011;37364;46.974;18.916;2023-09-19T13:55:47;1.25;;;0.88;;
51286;SDS011;37364;46.974;18.916;2023-09-19T13:58:18;1.42;;;0.88;;
51286;SDS011;37364;46.974;18.916;2023-09-19T14:00:48;11.07;;;0.73;;
51286;SDS011;37364;46.974;18.916;2023-09-19T14:03:22;0.80;;;0.80;;
51286;SDS011;37364;46.974;18.916;2023-09-19T14:05:55;2.33;;;1.00;;
51286;SDS011;37364;46.974;18.916;2023-09-19T14:08:25;1.48;;;0.70;;
51286;SDS011;37364;46.974;18.916;2023-09-19T14:10:58;1.33;;;1.02;;
51286;SDS011;37364;46.974;18.916;2023-09-19T14:13:29;2.10;;;0.93;;
51286;SDS011;37364;46.974;18.916;2023-09-19T14:16:02;2.05;;;1.02;;
51286;SDS011;37364;46.974;18.916;2023-09-19T14:18:35;1.27;;;1.13;;
51286;SDS011;37364;46.974;18.916;2023-09-19T14:21:06;1.33;;;0.65;;
51286;SDS011;37364;46.974;18.916;2023-09-19T14:23:38;0.85;;;0.60;;
51286;SDS011;37364;46.974;18.916;2023-09-19T14:26:11;6.75;;;0.82;;
51286;SDS011;37364;46.974;18.916;2023-09-19T14:28:42;2.22;;;0.88;;
51286;SDS011;37364;46.974;18.916;2023-09-19T14:31:13;2.00;;;1.17;;
51286;SDS011;37364;46.974;18.916;2023-09-19T14:33:43;0.90;;;0.80;;
51286;SDS011;37364;46.974;18.916;2023-09-19T14:36:13;4.03;;;0.85;;
51286;SDS011;37364;46.974;18.916;2023-09-19T14:38:45;1.13;;;0.90;;
51286;SDS011;37364;46.974;18.916;2023-09-19T14:41:21;1.05;;;0.75;;
51286;SDS011;37364;46.974;18.916;2023-09-19T14:43:52;1.00;;;1.00;;
51286;SDS011;37364;46.974;18.916;2023-09-19T14:46:22;1.35;;;0.90;;
51286;SDS011;37364;46.974;18.916;2023-09-19T14:48:53;0.70;;;0.70;;
51286;SDS011;37364;46.974;18.916;2023-09-19T14:51:28;1.83;;;0.95;;
51286;SDS011;37364;46.974;18.916;2023-09-19T14:53:59;0.98;;;0.98;;
51286;SDS011;37364;46.974;18.916;2023-09-19T14:56:32;1.88;;;0.80;;
51286;SDS011;37364;46.974;18.916;2023-09-19T14:59:03;1.55;;;0.75;;
51286;SDS011;37364;46.974;18.916;2023-09-19T15:01:33;3.03;;;0.88;;
51286;SDS011;37364;46.974;18.916;2023-09-19T15:04:04;1.42;;;0.60;;
51286;SDS011;37364;46.974;18.916;2023-09-19T15:06:35;0.88;;;0.82;;
51286;SDS011;37364;46.974;18.916;2023-09-19T15:09:07;1.15;;;0.75;;
51286;SDS011;37364;46.974;18.916;2023-09-19T15:11:40;2.47;;;0.63;;
51286;SDS011;37364;46.974;18.916;2023-09-19T15:14:13;1.50;;;1.35;;
51286;SDS011;37364;46.974;18.916;2023-09-19T15:16:43;0.87;;;0.67;;
51286;SDS011;37364;46.974;18.916;2023-09-19T15:19:13;2.47;;;1.13;;
51286;SDS011;37364;46.974;18.916;2023-09-19T15:21:44;1.30;;;1.08;;
51286;SDS011;37364;46.974;18.916;2023-09-19T15:24:14;1.17;;;0.70;;
51286;SDS011;37364;46.974;18.916;2023-09-19T15:26:47;3.47;;;1.08;;
51286;SDS011;37364;46.974;18.916;2023-09-19T15:29:18;2.20;;;0.85;;
51286;SDS011;37364;46.974;18.916;2023-09-19T15:31:48;1.75;;;0.60;;
51286;SDS011;37364;46.974;18.916;2023-09-19T15:34:19;0.80;;;0.75;;
51286;SDS011;37364;46.974;18.916;2023-09-19T15:36:49;0.60;;;0.60;;
51286;SDS011;37364;46.974;18.916;2023-09-19T15:39:19;1.75;;;1.08;;
51286;SDS011;37364;46.974;18.916;2023-09-19T15:41:52;1.67;;;0.80;;
51286;SDS011;37364;46.974;18.916;2023-09-19T15:44:22;1.85;;;1.00;;
51286;SDS011;37364;46.974;18.916;2023-09-19T15:46:53;1.60;;;0.75;;
51286;SDS011;37364;46.974;18.916;2023-09-19T15:49:24;4.30;;;0.95;;